Oud-Heverlee, Belgium
Current Conditions -  °F | °C
As of 1:50 PM on Friday 24 Oct 2014 (Local Time) from EBBR Reporting Station
Few Clouds Few Clouds  
Wind Chill: 55°   Ceiling: Unl
Heat Index: 55°   Visibility: 6mi
Dew Point: 48°   Wind: 14mph
Humidity: 77%   Direction: 190°S
Pressure: 30.06"   Gusts: NA
Location:  50.84°N, 4.66°E
Report Text: EBBR 241150Z 19012KT 9999 FEW018 13/09 Q1018 NOSIG
Loading
Personal Weather Stations






























Interactive Weather Map
Tropical Storm Tracking
New forecast layout! Learn more

10-Day Weather Forecast

Advertisements
Track Severe Weather on mobile